FMMI

Ivato Airport

Antananarivo, Madagascar
METAR FMMI 201300Z 28008KT 240V330 9999 TS FEW020CB SCT023 21/19 Q1014 TEMPO 4000 TSRA
Observed Flight Rules
Jan-20 @ 13:00 UTC (11 minutes ago) Visual Flight Rules
Wind Visibility Clouds Conditions
280° at 8 knots 10,000+ meters
  • Few at 2,000' AGL
  • Scattered at 2,300' AGL
  • Thunderstorm
Temperatures Readings
Current 21°C / 70°F
Dewpoint 19°C / 66°F
Humidity 88%
Altimeter 29.94" Hg
Pressure 1014 hPa
Elevation 1276
METAR FMMI 201300Z 28008KT 240V330 9999 TS FEW020CB SCT023 21/19 Q1014 TEMPO 4000 TSRA
Observed Flight Rules
Jan-20 @ 13:00 UTC
(11 minutes ago)
VFR
Wind Visibility
280° at 8 knots 10,000+ meters
Clouds
  • Few at 2,000' AGL
  • Scattered at 2,300' AGL
Conditions
  • Thunderstorm
Temperature Dewpoint
21°C / 70°F 19°C / 66°F
Humidity Altimeter Pressure
88% 29.94" Hg 1014 hPa